Time;durP1;ratioP1;P1;durP2;ratioP2;P2;SDS_P1;SDS_P2;PMS_P1;PMS_P2;Temp;Humidity;BMP_temperature;BMP_pressure;BME280_temperature;BME280_humidity;BME280_pressure;Samples;Min_cycle;Max_cycle;Signal;HPM_P1;HPM_P2
2023/08/10 00:01:02;;;;;;;6.35;4.50;;;;;;;11.57;100.00;100750.03;5071276;28;20032;-77
2023/08/10 00:03:28;;;;;;;7.05;4.75;;;;;;;11.57;100.00;100756.53;5073212;28;20042;-76
2023/08/10 00:05:54;;;;;;;8.18;4.15;;;;;;;11.56;100.00;100759.91;5073567;28;20490;-77
2023/08/10 00:08:19;;;;;;;7.07;4.07;;;;;;;11.54;100.00;100751.81;5056853;28;20020;-76
2023/08/10 00:10:49;;;;;;;11.57;4.20;;;;;;;11.51;100.00;100749.94;5074651;28;20507;-75
2023/08/10 00:13:14;;;;;;;7.75;4.40;;;;;;;11.46;100.00;100747.75;5074830;28;20028;-77
2023/08/10 00:15:40;;;;;;;8.23;4.50;;;;;;;11.50;100.00;100764.72;5073622;28;20020;-77
2023/08/10 00:18:06;;;;;;;6.03;4.03;;;;;;;11.48;100.00;100759.47;5073386;28;20060;-77
2023/08/10 00:20:32;;;;;;;6.63;4.22;;;;;;;11.47;100.00;100759.97;5074409;28;20373;-76
2023/08/10 00:22:57;;;;;;;6.13;4.05;;;;;;;11.46;100.00;100764.91;5074776;28;20480;-77
2023/08/10 00:25:23;;;;;;;7.45;4.13;;;;;;;11.47;100.00;100754.25;5074489;28;20024;-76
2023/08/10 00:27:48;;;;;;;7.70;4.13;;;;;;;11.48;100.00;100756.59;5074576;28;20091;-78
2023/08/10 00:30:14;;;;;;;6.70;4.55;;;;;;;11.44;100.00;100753.16;5074658;28;20454;-78
2023/08/10 00:32:39;;;;;;;5.10;4.13;;;;;;;11.47;100.00;100752.16;5073049;28;20028;-79
2023/08/10 00:35:05;;;;;;;8.52;4.40;;;;;;;11.45;100.00;100748.22;5073023;28;20111;-78
2023/08/10 00:37:31;;;;;;;7.95;5.05;;;;;;;11.43;100.00;100759.34;5074518;28;20036;-77
2023/08/10 00:39:56;;;;;;;8.50;4.10;;;;;;;11.38;100.00;100760.81;5074153;28;20367;-80
2023/08/10 00:42:22;;;;;;;4.53;3.67;;;;;;;11.37;100.00;100764.94;5072885;28;20085;-77
2023/08/10 00:44:48;;;;;;;5.47;3.92;;;;;;;11.42;100.00;100760.66;5073074;28;20036;-75
2023/08/10 00:47:14;;;;;;;5.30;4.00;;;;;;;11.42;100.00;100767.13;5073328;28;20024;-76
2023/08/10 00:49:40;;;;;;;6.28;3.70;;;;;;;11.43;100.00;100760.16;5056237;28;20032;-76
2023/08/10 00:52:05;;;;;;;9.90;4.00;;;;;;;11.45;100.00;100757.59;5055083;28;20381;-76
2023/08/10 00:54:31;;;;;;;5.68;4.35;;;;;;;11.35;100.00;100730.31;5071317;28;20024;-76
2023/08/10 00:56:57;;;;;;;4.55;3.75;;;;;;;11.48;100.00;100750.88;5070529;28;20021;-76
2023/08/10 00:59:23;;;;;;;5.63;3.60;;;;;;;11.48;100.00;100750.88;5070484;28;20032;-77
2023/08/10 01:01:49;;;;;;;5.18;4.07;;;;;;;11.49;100.00;100757.41;5071959;28;20052;-76
2023/08/10 01:04:14;;;;;;;8.52;4.35;;;;;;;11.48;100.00;100758.69;5072798;28;20445;-78
2023/08/10 01:06:47;;;;;;;7.45;4.40;;;;;;;11.52;100.00;100756.44;5071946;28;20414;-77
2023/08/10 01:09:58;;;;;;;5.82;3.80;;;;;;;11.52;100.00;100757.22;5070825;28;20027;-76
2023/08/10 01:12:29;;;;;;;6.60;3.75;;;;;;;11.51;100.00;100766.31;5065054;28;20071;-75
2023/08/10 01:15:04;;;;;;;6.22;4.25;;;;;;;11.50;100.00;100771.25;5072493;28;20029;-76
2023/08/10 01:17:32;;;;;;;5.40;4.05;;;;;;;11.44;100.00;100758.88;5073881;28;20032;-76
2023/08/10 01:20:03;;;;;;;9.57;4.50;;;;;;;11.47;100.00;100772.19;5071253;28;20032;-78
2023/08/10 01:22:49;;;;;;;8.32;4.40;;;;;;;11.43;100.00;100774.44;5073482;28;20024;-77
2023/08/10 01:25:15;;;;;;;5.57;4.43;;;;;;;11.36;100.00;100774.84;5073873;28;20027;-76
2023/08/10 01:27:41;;;;;;;7.07;5.00;;;;;;;11.35;100.00;100776.09;5072081;28;20029;-77
2023/08/10 01:30:08;;;;;;;6.68;4.32;;;;;;;11.30;100.00;100768.19;5071021;28;20067;-77
2023/08/10 01:32:33;;;;;;;5.80;4.30;;;;;;;11.27;100.00;100772.03;5070041;28;20108;-75
2023/08/10 01:35:00;;;;;;;12.60;5.25;;;;;;;11.23;100.00;100771.41;5070111;28;20444;-75
2023/08/10 01:37:26;;;;;;;9.00;5.47;;;;;;;11.16;100.00;100780.38;5070246;28;20032;-77
2023/08/10 01:39:51;;;;;;;5.40;4.40;;;;;;;11.07;100.00;100766.88;5071473;28;20078;-77
2023/08/10 01:42:17;;;;;;;8.15;5.47;;;;;;;11.08;100.00;100776.22;5070974;28;20397;-78
2023/08/10 01:44:42;;;;;;;8.20;4.57;;;;;;;11.02;100.00;100776.13;5070933;28;20025;-77
2023/08/10 01:47:40;;;;;;;9.35;4.68;;;;;;;10.93;100.00;100771.22;5071769;28;20029;-78
2023/08/10 01:50:08;;;;;;;6.97;4.63;;;;;;;10.88;100.00;100771.09;5056475;28;20563;-78
2023/08/10 01:52:36;;;;;;;8.07;4.90;;;;;;;10.96;100.00;100789.50;5071336;28;20025;-76
2023/08/10 01:55:02;;;;;;;7.30;4.07;;;;;;;10.93;100.00;100796.16;5069838;28;20035;-78
2023/08/10 01:57:29;;;;;;;9.10;5.47;;;;;;;10.96;100.00;100803.78;5070206;28;20020;-77
2023/08/10 01:59:55;;;;;;;6.22;4.50;;;;;;;10.88;100.00;100788.25;5070115;28;20028;-78
2023/08/10 02:02:20;;;;;;;8.18;4.20;;;;;;;10.89;100.00;100799.19;5071851;28;20043;-78
2023/08/10 02:04:46;;;;;;;8.05;4.38;;;;;;;10.90;100.00;100800.78;5071892;28;20036;-76
2023/08/10 02:07:11;;;;;;;5.55;4.15;;;;;;;10.88;100.00;100808.25;5073283;28;20025;-76
2023/08/10 02:09:37;;;;;;;6.93;4.07;;;;;;;10.88;100.00;100802.53;5072099;28;20024;-78
2023/08/10 02:12:03;;;;;;;6.50;4.60;;;;;;;10.86;100.00;100800.19;5071709;28;20078;-75
2023/08/10 02:14:29;;;;;;;8.10;4.72;;;;;;;10.84;100.00;100805.56;5073206;28;20017;-76
2023/08/10 02:16:54;;;;;;;10.13;4.32;;;;;;;10.82;100.00;100811.00;5073021;28;20426;-76
2023/08/10 02:19:20;;;;;;;6.90;4.22;;;;;;;10.81;100.00;100811.47;5073105;28;20025;-78
2023/08/10 02:21:45;;;;;;;8.82;4.65;;;;;;;10.81;100.00;100802.91;5073166;28;20032;-75
2023/08/10 02:24:11;;;;;;;10.77;4.75;;;;;;;10.84;100.00;100796.19;5073039;28;20063;-77
2023/08/10 02:26:36;;;;;;;5.25;4.32;;;;;;;10.84;100.00;100814.16;5071652;28;20029;-75
2023/08/10 02:29:01;;;;;;;10.85;4.40;;;;;;;10.86;100.00;100808.75;5073103;28;20023;-78
2023/08/10 02:31:27;;;;;;;7.70;4.55;;;;;;;10.90;100.00;100800.78;5072841;28;20481;-78
2023/08/10 02:33:52;;;;;;;8.43;4.50;;;;;;;10.93;100.00;100805.53;5072836;28;20485;-75
2023/08/10 02:36:17;;;;;;;6.32;4.05;;;;;;;10.96;100.00;100803.78;5073032;28;20104;-78
2023/08/10 02:38:43;;;;;;;6.20;4.20;;;;;;;10.99;100.00;100792.16;5074211;28;20055;-76
2023/08/10 02:41:09;;;;;;;8.80;4.30;;;;;;;11.01;100.00;100808.06;5075257;28;20074;-76
2023/08/10 02:43:35;;;;;;;8.68;4.38;;;;;;;10.97;100.00;100794.72;5076625;28;20396;-76
2023/08/10 02:46:01;;;;;;;8.48;4.40;;;;;;;11.10;100.00;100805.94;5075226;28;20519;-80
2023/08/10 02:48:26;;;;;;;7.30;3.75;;;;;;;11.12;100.00;100802.63;5076305;28;20035;-77
2023/08/10 02:50:51;;;;;;;7.88;4.05;;;;;;;11.16;100.00;100803.25;5075420;28;20457;-76
2023/08/10 02:53:17;;;;;;;6.97;3.88;;;;;;;11.16;100.00;100804.03;5075320;28;20036;-75
2023/08/10 02:55:43;;;;;;;5.55;3.38;;;;;;;11.18;100.00;100803.53;5075082;28;20040;-77
2023/08/10 02:58:09;;;;;;;7.20;3.83;;;;;;;11.18;100.00;100803.53;5076255;28;20028;-75
2023/08/10 03:00:36;;;;;;;7.03;3.40;;;;;;;11.16;100.00;100806.91;5076214;28;20081;-76
2023/08/10 03:03:02;;;;;;;5.32;3.33;;;;;;;11.15;100.00;100807.38;5074931;28;20039;-75
2023/08/10 03:05:27;;;;;;;8.65;3.85;;;;;;;11.13;100.00;100815.63;5074941;28;20029;-76
2023/08/10 03:07:52;;;;;;;4.75;3.78;;;;;;;11.09;100.00;100812.94;5076238;28;20028;-76
2023/08/10 03:10:18;;;;;;;5.28;3.50;;;;;;;11.02;100.00;100813.31;5076030;28;20127;-76
2023/08/10 03:12:43;;;;;;;6.75;3.97;;;;;;;10.95;100.00;100811.56;5075981;28;20378;-76
2023/08/10 03:15:11;;;;;;;8.70;3.47;;;;;;;10.89;100.00;100804.13;5074671;28;20031;-77
2023/08/10 03:17:37;;;;;;;10.07;3.65;;;;;;;10.88;100.00;100809.06;5074595;28;20032;-75
2023/08/10 03:20:06;;;;;;;10.15;4.05;;;;;;;10.81;100.00;100812.28;5076068;28;20024;-76
2023/08/10 03:22:31;;;;;;;5.22;3.28;;;;;;;10.71;100.00;100818.50;5074488;28;20039;-75
2023/08/10 03:24:57;;;;;;;4.13;3.40;;;;;;;10.70;100.00;100816.91;5074643;28;20028;-77
2023/08/10 03:27:23;;;;;;;6.78;3.70;;;;;;;10.68;100.00;100828.81;5075745;28;20032;-76
2023/08/10 03:29:48;;;;;;;6.65;3.72;;;;;;;10.62;100.00;100825.03;5075871;28;20056;-78
2023/08/10 03:32:14;;;;;;;8.15;3.95;;;;;;;10.61;100.00;100839.81;5075564;28;20377;-76
2023/08/10 03:34:39;;;;;;;5.93;4.03;;;;;;;10.57;100.00;100839.97;5075830;28;20071;-76
2023/08/10 03:37:05;;;;;;;5.72;3.90;;;;;;;10.53;100.00;100840.13;5075481;28;20078;-77
2023/08/10 03:39:30;;;;;;;5.97;3.55;;;;;;;10.49;100.00;100845.22;5075539;28;20029;-77
2023/08/10 03:41:56;;;;;;;6.80;3.33;;;;;;;10.44;100.00;100845.06;5074226;28;20445;-74
2023/08/10 03:44:21;;;;;;;10.52;3.42;;;;;;;10.35;100.00;100837.31;5074140;28;20033;-76
2023/08/10 03:46:48;;;;;;;6.53;3.50;;;;;;;10.35;100.00;100854.44;5073864;28;20532;-76
2023/08/10 03:49:13;;;;;;;7.88;4.28;;;;;;;10.32;100.00;100852.56;5075065;28;20458;-74
2023/08/10 03:51:39;;;;;;;7.57;3.92;;;;;;;10.28;100.00;100854.00;5075548;28;20024;-78
2023/08/10 03:54:06;;;;;;;7.78;3.97;;;;;;;10.26;100.00;100856.53;5073759;28;20032;-75
2023/08/10 03:56:32;;;;;;;10.73;4.97;;;;;;;10.27;100.00;100863.84;5075151;28;20485;-76
2023/08/10 03:58:57;;;;;;;9.80;4.10;;;;;;;10.25;100.00;100872.06;5072222;28;20020;-77
2023/08/10 04:01:22;;;;;;;7.82;4.85;;;;;;;10.25;100.00;100872.88;5071945;28;20101;-78
2023/08/10 04:03:48;;;;;;;6.45;4.70;;;;;;;10.25;100.00;100872.88;5075029;28;20028;-75
2023/08/10 04:06:14;;;;;;;16.48;5.00;;;;;;;10.24;100.00;100879.84;5075120;28;20028;-76
2023/08/10 04:08:39;;;;;;;8.68;4.93;;;;;;;10.25;100.00;100877.78;5073621;28;20036;-76
2023/08/10 04:11:04;;;;;;;9.35;4.55;;;;;;;10.27;100.00;100880.97;5074823;28;20060;-78
2023/08/10 04:13:30;;;;;;;7.15;4.15;;;;;;;10.28;100.00;100877.66;5074987;28;20107;-76
2023/08/10 04:15:56;;;;;;;8.68;4.38;;;;;;;10.23;100.00;100875.44;5073415;28;20036;-78
2023/08/10 04:18:22;;;;;;;5.55;4.43;;;;;;;10.29;100.00;100879.22;5073370;28;20115;-77
2023/08/10 04:20:47;;;;;;;6.13;3.55;;;;;;;10.33;100.00;100882.72;5073038;28;20438;-77
2023/08/10 04:23:12;;;;;;;6.55;4.25;;;;;;;10.32;100.00;100874.63;5072884;28;20020;-77
2023/08/10 04:25:38;;;;;;;6.32;4.05;;;;;;;10.37;100.00;100885.41;5074483;28;20425;-76
2023/08/10 04:28:05;;;;;;;9.38;4.40;;;;;;;10.41;100.00;100889.69;5073288;28;20031;-77
2023/08/10 04:30:30;;;;;;;8.68;4.30;;;;;;;10.46;100.00;100891.09;5056600;28;20043;-76
2023/08/10 04:32:56;;;;;;;9.55;4.50;;;;;;;10.47;100.00;100893.50;5074646;28;20028;-76
2023/08/10 04:35:22;;;;;;;7.68;4.40;;;;;;;10.50;100.00;100894.59;5073147;28;20163;-76
2023/08/10 04:37:49;;;;;;;10.30;5.55;;;;;;;10.58;100.00;100895.06;5073175;28;20020;-75
2023/08/10 04:40:15;;;;;;;13.77;5.32;;;;;;;10.63;100.00;100898.06;5073787;28;20454;-76
2023/08/10 04:42:41;;;;;;;6.97;4.00;;;;;;;10.72;100.00;100900.13;5071800;28;20098;-77
2023/08/10 04:45:10;;;;;;;8.82;4.72;;;;;;;10.78;100.00;100898.19;5074070;28;20059;-77
2023/08/10 04:47:37;;;;;;;8.68;4.20;;;;;;;10.84;100.00;100894.22;5056398;28;20107;-77
2023/08/10 04:50:06;;;;;;;11.38;4.45;;;;;;;10.91;100.00;100895.94;5039660;28;20119;-76
2023/08/10 04:52:32;;;;;;;8.57;4.68;;;;;;;10.98;100.00;100899.25;5072778;28;20017;-78
2023/08/10 04:54:58;;;;;;;9.63;4.30;;;;;;;11.07;100.00;100904.16;5073961;28;20366;-77
2023/08/10 04:57:24;;;;;;;7.10;4.18;;;;;;;11.15;100.00;100904.63;5073804;28;20090;-76
2023/08/10 04:59:49;;;;;;;9.95;5.13;;;;;;;11.24;100.00;100905.38;5072404;28;20423;-77
2023/08/10 05:02:16;;;;;;;5.38;3.88;;;;;;;11.33;100.00;100902.47;5071894;28;20044;-78
2023/08/10 05:04:42;;;;;;;9.20;3.90;;;;;;;11.41;100.00;100911.53;5074148;28;20044;-77
2023/08/10 05:07:09;;;;;;;13.00;4.40;;;;;;;11.50;100.00;100900.03;5073824;28;20093;-77
2023/08/10 05:09:34;;;;;;;18.50;4.47;;;;;;;11.61;100.00;100908.09;5073990;28;20037;-78
2023/08/10 05:12:00;;;;;;;5.82;4.32;;;;;;;11.64;100.00;100893.59;5072509;28;20027;-77
2023/08/10 05:14:25;;;;;;;5.40;3.88;;;;;;;11.75;100.00;100896.69;5072413;28;20381;-77
2023/08/10 05:16:51;;;;;;;6.97;3.78;;;;;;;11.83;100.00;100906.50;5073901;28;20056;-78
2023/08/10 05:19:16;;;;;;;8.50;3.80;;;;;;;11.92;100.00;100905.66;5072218;28;20516;-78
2023/08/10 05:21:42;;;;;;;10.45;4.28;;;;;;;12.00;100.00;100912.59;5073779;28;20037;-82
2023/08/10 05:24:10;;;;;;;10.55;4.22;;;;;;;12.08;100.00;100915.88;5073957;28;20024;-82
2023/08/10 05:26:37;;;;;;;10.27;3.95;;;;;;;12.14;100.00;100911.88;5073558;28;20033;-74
2023/08/10 05:29:04;;;;;;;6.05;3.60;;;;;;;12.21;100.00;100910.69;5073637;28;20051;-77
2023/08/10 05:31:30;;;;;;;9.13;4.20;;;;;;;12.29;100.00;100914.78;5073943;28;20424;-75
2023/08/10 05:33:57;;;;;;;6.97;3.45;;;;;;;12.40;100.00;100915.03;5073660;28;20044;-76
2023/08/10 05:36:23;;;;;;;5.93;3.22;;;;;;;12.51;100.00;100906.63;5073632;28;20468;-74
2023/08/10 05:38:49;;;;;;;4.88;3.50;;;;;;;12.61;100.00;100904.47;5073655;28;20032;-73
2023/08/10 05:41:15;;;;;;;7.03;3.47;;;;;;;12.69;100.00;100897.06;5073109;28;20032;-73
2023/08/10 05:43:42;;;;;;;6.20;3.10;;;;;;;12.79;100.00;100898.56;5073757;28;20035;-73
2023/08/10 05:46:11;;;;;;;6.53;3.40;;;;;;;12.95;100.00;100900.13;5072021;28;20029;-75
2023/08/10 05:48:37;;;;;;;7.32;3.20;;;;;;;13.05;100.00;100896.66;5073249;28;20505;-74
2023/08/10 05:51:03;;;;;;;5.68;3.30;;;;;;;13.13;100.00;100899.94;5072669;28;20056;-74
2023/08/10 05:53:29;;;;;;;13.07;3.35;;;;;;;13.20;100.00;100896.66;5072378;28;20111;-75
2023/08/10 05:55:55;;;;;;;7.50;2.90;;;;;;;13.34;100.00;100895.81;5072491;28;20028;-74
2023/08/10 05:58:22;;;;;;;7.35;3.38;;;;;;;13.47;100.00;100907.78;5087942;28;20028;-73
2023/08/10 06:00:47;;;;;;;8.50;3.22;;;;;;;13.58;100.00;100912.94;5087822;28;20037;-74
2023/08/10 06:03:12;;;;;;;5.25;2.88;;;;;;;13.70;100.00;100908.16;5071850;28;20016;-72
2023/08/10 06:05:38;;;;;;;5.97;3.00;;;;;;;13.77;100.00;100905.66;5071832;28;20036;-73
2023/08/10 06:08:06;;;;;;;8.00;2.95;;;;;;;13.88;100.00;100905.03;5070275;28;20020;-76
2023/08/10 06:10:31;;;;;;;9.48;3.53;;;;;;;14.00;100.00;100906.75;5069339;28;20028;-76
2023/08/10 06:12:57;;;;;;;9.65;3.28;;;;;;;14.13;100.00;100907.19;5069988;28;20335;-75
2023/08/10 06:15:24;;;;;;;6.85;2.70;;;;;;;14.21;100.00;100911.22;5074661;28;20105;-75
2023/08/10 06:17:51;;;;;;;7.72;2.70;;;;;;;14.38;100.00;100909.31;5076958;28;20040;-77
2023/08/10 06:20:21;;;;;;;9.82;4.05;;;;;;;14.50;100.00;100910.25;5075484;28;20064;-77
2023/08/10 06:22:48;;;;;;;5.10;2.28;;;;;;;14.64;100.00;100899.97;5076796;28;20028;-75
2023/08/10 06:25:15;;;;;;;5.22;2.15;;;;;;;14.74;100.00;100896.41;5077188;28;20024;-76
2023/08/10 06:27:55;;;;;;;6.03;2.28;;;;;;;14.90;100.00;100897.88;5077205;28;20029;-77
2023/08/10 06:30:20;;;;;;;7.75;2.80;;;;;;;15.04;100.00;100896.97;5076642;28;20103;-77
2023/08/10 06:32:47;;;;;;;11.70;2.65;;;;;;;15.18;100.00;100896.03;5092636;28;20112;-76
2023/08/10 06:35:13;;;;;;;5.60;2.10;;;;;;;15.40;100.00;100891.75;5075198;28;20040;-76
2023/08/10 06:37:40;;;;;;;5.90;2.22;;;;;;;16.12;100.00;100900.84;5076934;28;20028;-75
2023/08/10 06:40:08;;;;;;;3.50;2.03;;;;;;;17.38;100.00;100898.00;5058855;28;20083;-77
2023/08/10 06:42:35;;;;;;;6.10;1.70;;;;;;;19.04;100.00;100887.88;5076596;28;20107;-78
2023/08/10 06:45:02;;;;;;;7.18;1.50;;;;;;;20.80;100.00;100868.25;5075682;28;20024;-77
2023/08/10 06:47:29;;;;;;;4.57;1.75;;;;;;;22.45;100.00;100873.69;5092160;28;20449;-78
2023/08/10 06:49:54;;;;;;;8.73;2.03;;;;;;;23.93;100.00;100877.72;5075057;28;20056;-78
2023/08/10 06:52:21;;;;;;;3.42;2.17;;;;;;;25.35;100.00;100881.03;5075213;28;20063;-79
2023/08/10 06:54:47;;;;;;;4.50;1.50;;;;;;;26.62;97.21;100879.88;5076456;28;20054;-77
2023/08/10 06:57:13;;;;;;;3.80;1.77;;;;;;;27.61;90.57;100885.97;5076626;28;20021;-78
2023/08/10 06:59:39;;;;;;;4.03;1.88;;;;;;;28.55;82.35;100895.63;5092170;28;20363;-77
2023/08/10 07:02:05;;;;;;;3.30;1.95;;;;;;;29.53;78.28;100905.22;5075494;28;20045;-78
2023/08/10 07:04:31;;;;;;;6.55;2.20;;;;;;;30.52;67.70;100913.09;5092077;28;20032;-78
2023/08/10 07:06:58;;;;;;;3.40;2.15;;;;;;;31.26;59.32;100917.25;5075100;28;20555;-79
2023/08/10 07:09:25;;;;;;;3.55;1.60;;;;;;;31.95;54.68;100910.44;5074772;28;20028;-78
2023/08/10 07:11:50;;;;;;;5.32;2.05;;;;;;;32.39;48.11;100920.94;5075753;28;20032;-78
2023/08/10 07:14:17;;;;;;;4.93;2.05;;;;;;;32.51;43.54;100921.75;5075966;28;20045;-79
2023/08/10 07:16:42;;;;;;;7.07;1.50;;;;;;;32.65;39.91;100920.53;5075112;28;20029;-76
2023/08/10 07:19:08;;;;;;;3.78;2.15;;;;;;;32.95;39.00;100921.06;5108664;28;20381;-77
2023/08/10 07:21:35;;;;;;;7.95;1.73;;;;;;;33.06;37.96;100917.38;5076445;28;20031;-76
2023/08/10 07:24:01;;;;;;;5.13;1.40;;;;;;;33.07;35.73;100913.78;5074121;28;20032;-79
2023/08/10 07:26:27;;;;;;;2.53;1.48;;;;;;;33.40;35.44;100918.91;5074713;28;20032;-82
2023/08/10 07:28:52;;;;;;;3.70;1.63;;;;;;;33.71;32.85;100915.72;5091682;28;20385;-81
2023/08/10 07:31:20;;;;;;;3.63;1.75;;;;;;;33.98;34.50;100918.16;5076089;28;20065;-79
2023/08/10 07:33:50;;;;;;;5.25;1.48;;;;;;;33.92;32.70;100915.56;5076366;28;20025;-76
2023/08/10 07:36:15;;;;;;;7.30;1.60;;;;;;;33.91;33.39;100917.78;5076127;28;20028;-78
2023/08/10 07:38:43;;;;;;;5.15;1.85;;;;;;;34.14;33.23;100916.22;5075847;28;20035;-75
2023/08/10 07:41:09;;;;;;;1.95;1.20;;;;;;;34.15;32.50;100917.78;5075954;28;20028;-76
2023/08/10 07:43:35;;;;;;;4.25;1.42;;;;;;;34.36;32.77;100909.47;5075956;28;20021;-74
2023/08/10 07:46:01;;;;;;;8.75;1.55;;;;;;;34.55;33.30;100919.50;5075528;28;20028;-79
2023/08/10 07:48:27;;;;;;;2.88;1.20;;;;;;;34.70;31.64;100913.78;5074493;28;20550;-79
2023/08/10 07:50:54;;;;;;;2.08;1.38;;;;;;;35.01;33.06;100912.59;5075589;28;20040;-78
2023/08/10 07:53:20;;;;;;;3.17;2.50;;;;;;;35.35;30.22;100916.81;5075482;28;20047;-77
2023/08/10 07:55:46;;;;;;;5.28;1.80;;;;;;;35.26;30.45;100918.53;5090789;28;20470;-76
2023/08/10 07:58:14;;;;;;;2.00;1.58;;;;;;;35.08;31.12;100912.31;5074258;28;20027;-76
2023/08/10 08:00:42;;;;;;;2.35;1.15;;;;;;;35.34;31.38;100924.19;5090084;28;20049;-79
2023/08/10 08:03:08;;;;;;;2.75;1.10;;;;;;;35.53;29.77;100914.88;5107914;28;20029;-78
2023/08/10 08:05:37;;;;;;;3.35;1.10;;;;;;;35.41;27.06;100917.91;5075510;28;20020;-76
2023/08/10 08:08:23;;;;;;;6.85;2.03;;;;;;;34.93;28.16;100909.16;5075354;28;20057;-80
2023/08/10 08:10:50;;;;;;;2.30;0.90;;;;;;;34.51;28.47;100919.25;5075679;28;20464;-76
2023/08/10 08:13:17;;;;;;;5.32;1.50;;;;;;;33.65;29.52;100916.09;5075286;28;20028;-80
2023/08/10 08:15:49;;;;;;;1.45;0.77;;;;;;;32.68;29.50;100912.63;5075336;28;20031;-80
2023/08/10 08:18:46;;;;;;;4.25;1.20;;;;;;;32.87;29.92;100924.28;5075154;28;20059;-81
2023/08/10 08:21:17;;;;;;;1.98;0.70;;;;;;;33.37;31.05;100923.94;5074822;28;20020;-81
2023/08/10 08:23:45;;;;;;;3.28;1.10;;;;;;;33.58;30.88;100926.00;5074821;28;20427;-79
2023/08/10 08:26:14;;;;;;;1.70;0.98;;;;;;;33.53;28.68;100913.09;5079912;28;20071;-84
2023/08/10 08:29:01;;;;;;;2.67;1.05;;;;;;;33.29;29.57;100917.47;5074757;28;20028;-82
2023/08/10 08:31:27;;;;;;;4.55;1.45;;;;;;;33.45;30.26;100915.56;5075223;28;20040;-84
2023/08/10 08:34:07;;;;;;;5.57;1.05;;;;;;;33.31;30.17;100922.75;5074724;28;20020;-80
2023/08/10 08:36:32;;;;;;;4.72;1.20;;;;;;;33.51;31.06;100921.09;5073611;28;20050;-79
2023/08/10 08:38:59;;;;;;;3.20;1.10;;;;;;;33.56;28.51;100905.13;5074397;28;20099;-80
2023/08/10 08:41:27;;;;;;;2.35;0.90;;;;;;;33.61;30.33;100912.09;5074701;28;20033;-80
2023/08/10 08:44:03;;;;;;;2.95;1.10;;;;;;;33.82;28.87;100909.78;5089875;28;20044;-79
2023/08/10 08:46:31;;;;;;;2.55;0.98;;;;;;;33.87;28.95;100910.81;5072915;28;20149;-81
2023/08/10 08:48:58;;;;;;;2.50;1.40;;;;;;;33.84;28.32;100918.03;5089709;28;20025;-81
2023/08/10 08:51:24;;;;;;;2.38;1.10;;;;;;;33.55;28.33;100909.50;5089921;28;20033;-80
2023/08/10 08:53:52;;;;;;;5.95;1.13;;;;;;;33.30;28.93;100910.13;5073542;28;20028;-81
2023/08/10 08:56:17;;;;;;;7.60;1.13;;;;;;;32.97;28.35;100903.44;5089603;28;20047;-81
2023/08/10 08:58:44;;;;;;;1.48;1.10;;;;;;;32.48;29.08;100894.22;5073883;28;20024;-80
2023/08/10 09:01:09;;;;;;;1.20;0.90;;;;;;;32.43;29.76;100906.41;5073582;28;20505;-79
2023/08/10 09:03:36;;;;;;;3.42;0.95;;;;;;;32.64;30.32;100906.38;5106479;28;20091;-79
2023/08/10 09:06:05;;;;;;;1.80;0.80;;;;;;;32.86;28.76;100907.91;5089347;28;20031;-79
2023/08/10 09:08:31;;;;;;;3.45;0.80;;;;;;;32.85;29.05;100893.75;5073258;28;20431;-77
2023/08/10 09:10:57;;;;;;;2.88;1.00;;;;;;;32.62;29.41;100894.41;5106369;28;20024;-78
2023/08/10 09:13:24;;;;;;;5.22;1.30;;;;;;;32.45;29.49;100898.44;5074037;28;20032;-80
2023/08/10 09:16:13;;;;;;;1.27;1.08;;;;;;;32.31;28.32;100906.34;5073897;28;20021;-79
2023/08/10 09:18:58;;;;;;;2.67;1.02;;;;;;;31.92;29.28;100893.97;5073814;28;20021;-79
2023/08/10 09:21:45;;;;;;;1.15;0.85;;;;;;;31.50;27.89;100902.72;5072095;28;20040;-80
2023/08/10 09:24:11;;;;;;;3.58;1.23;;;;;;;31.27;28.82;100894.41;5072409;28;20050;-79
2023/08/10 09:26:55;;;;;;;3.45;1.00;;;;;;;30.93;29.66;100890.41;5106533;28;20034;-79
2023/08/10 09:29:29;;;;;;;1.45;0.85;;;;;;;30.83;31.04;100907.38;5072272;28;20112;-80
2023/08/10 09:31:58;;;;;;;1.63;0.82;;;;;;;30.93;31.43;100892.59;5055378;28;20040;-78
2023/08/10 09:34:24;;;;;;;2.25;0.88;;;;;;;30.91;30.52;100899.13;5105548;28;20086;-81
2023/08/10 09:36:55;;;;;;;5.10;0.90;;;;;;;30.87;30.04;100895.88;5088739;28;20065;-81
2023/08/10 09:39:22;;;;;;;;;;;;;;;30.53;30.96;100896.97;5072778;28;20025;-80
2023/08/10 09:41:54;;;;;;;1.83;0.70;;;;;;;30.40;33.15;100896.66;5073614;28;20470;-79
2023/08/10 09:44:21;;;;;;;1.90;0.80;;;;;;;30.61;32.61;100901.94;5088995;28;20082;-76
2023/08/10 09:46:55;;;;;;;2.58;0.90;;;;;;;30.76;31.28;100886.88;5073680;28;20039;-78
2023/08/10 09:49:22;;;;;;;2.47;0.80;;;;;;;30.23;28.91;100891.66;5106098;28;20032;-76
2023/08/10 09:51:51;;;;;;;4.68;1.50;;;;;;;29.63;31.99;100894.28;5073151;28;20381;-77
2023/08/10 09:54:23;;;;;;;5.50;1.05;;;;;;;29.25;31.92;100882.31;5073298;28;20052;-80
2023/08/10 09:56:50;;;;;;;2.70;0.60;;;;;;;28.99;33.38;100895.63;5073836;28;20075;-79
2023/08/10 09:59:30;;;;;;;3.70;0.95;;;;;;;28.69;33.16;100896.81;5105738;28;20033;-78
2023/08/10 10:02:11;;;;;;;2.75;1.00;;;;;;;28.43;33.28;100895.34;5072900;28;20051;-77
2023/08/10 10:04:42;;;;;;;2.13;1.00;;;;;;;28.17;34.39;100893.09;5073461;28;20033;-77
2023/08/10 10:07:08;;;;;;;3.15;0.80;;;;;;;27.77;34.97;100889.53;5073349;28;20047;-77
2023/08/10 10:09:45;;;;;;;2.58;0.90;;;;;;;27.30;37.89;100884.63;5088780;28;20059;-76
2023/08/10 10:12:25;;;;;;;3.70;0.90;;;;;;;26.98;40.31;100897.94;5071794;28;20029;-76
2023/08/10 10:14:52;;;;;;;3.22;1.00;;;;;;;26.51;40.26;100892.84;5087140;28;20062;-76
2023/08/10 10:17:19;;;;;;;4.50;1.10;;;;;;;26.23;43.33;100888.03;5073089;28;20098;-76
2023/08/10 10:19:50;;;;;;;3.10;0.90;;;;;;;26.14;43.00;100887.88;5105465;28;20036;-75
2023/08/10 10:22:40;;;;;;;2.35;0.82;;;;;;;25.98;41.33;100886.31;5105586;28;20043;-75
2023/08/10 10:25:14;;;;;;;0.85;0.80;;;;;;;25.66;41.90;100881.88;5072982;28;20098;-75
2023/08/10 10:27:40;;;;;;;1.83;1.00;;;;;;;25.60;44.47;100880.50;5088705;28;20032;-76
2023/08/10 10:30:16;;;;;;;1.65;0.80;;;;;;;25.73;41.76;100878.13;5088493;28;20380;-77
2023/08/10 10:33:09;;;;;;;2.72;1.00;;;;;;;25.82;43.74;100868.78;5072644;28;20032;-76
2023/08/10 10:35:34;;;;;;;3.03;1.00;;;;;;;25.85;45.90;100866.81;5068591;28;20530;-79
2023/08/10 10:38:20;;;;;;;4.03;1.23;;;;;;;25.87;46.06;100867.03;5073166;28;20021;-78
2023/08/10 10:40:49;;;;;;;1.77;0.80;;;;;;;25.93;46.11;100867.56;5072310;28;20465;-83
2023/08/10 10:43:15;;;;;;;1.80;0.90;;;;;;;25.98;46.31;100863.66;5105633;28;20075;-79
2023/08/10 10:45:43;;;;;;;12.63;1.30;;;;;;;26.09;45.01;100866.19;5105679;28;20377;-80
2023/08/10 10:48:13;;;;;;;5.85;1.48;;;;;;;26.07;39.19;100868.94;5073020;28;20024;-80
2023/08/10 10:50:39;;;;;;;3.67;0.73;;;;;;;25.89;39.14;100864.25;5072714;28;20074;-79
2023/08/10 10:53:15;;;;;;;2.38;0.73;;;;;;;25.73;39.62;100857.63;5072895;28;20036;-77
2023/08/10 10:55:45;;;;;;;2.38;0.70;;;;;;;25.56;38.20;100862.53;5072700;28;20523;-77
2023/08/10 10:58:13;;;;;;;1.65;0.70;;;;;;;25.44;39.09;100865.81;5072831;28;20107;-76
2023/08/10 11:00:40;;;;;;;3.65;0.93;;;;;;;25.26;36.98;100861.16;5107129;28;20140;-77
2023/08/10 11:03:13;;;;;;;15.32;2.97;;;;;;;24.99;35.90;100866.56;5059293;28;20135;-76
2023/08/10 11:05:39;;;;;;;2.75;0.77;;;;;;;24.75;39.29;100857.50;5074939;28;20059;-77
2023/08/10 11:08:09;;;;;;;2.10;0.98;;;;;;;24.55;39.16;100848.28;5076491;28;20025;-76
2023/08/10 11:10:37;;;;;;;2.15;1.00;;;;;;;24.26;38.66;100851.84;5091270;28;20103;-75
2023/08/10 11:13:05;;;;;;;2.45;1.35;;;;;;;23.85;38.07;100846.94;5077566;28;20055;-76
2023/08/10 11:15:31;;;;;;;1.73;1.00;;;;;;;23.62;40.17;100852.59;5108743;28;20067;-76
2023/08/10 11:17:57;;;;;;;2.40;0.77;;;;;;;23.32;42.81;100841.41;5108857;28;20405;-81
2023/08/10 11:20:25;;;;;;;2.88;0.80;;;;;;;23.30;48.89;100847.84;5107478;28;20064;-78
2023/08/10 11:22:53;;;;;;;2.55;0.80;;;;;;;23.29;50.03;100840.44;5075720;28;20017;-79